Time;durP1;ratioP1;P1;durP2;ratioP2;P2;SDS_P1;SDS_P2;PMS_P1;PMS_P2;Temp;Humidity;BMP_temperature;BMP_pressure;BME280_temperature;BME280_humidity;BME280_pressure;Samples;Min_cycle;Max_cycle;Signal;HPM_P1;HPM_P2
2021/12/31 00:01:01;;;;;;;13.85;8.07;;;;;;;10.96;100.00;100977.66;7401223;19;20366;-67
2021/12/31 00:03:29;;;;;;;16.35;7.75;;;;;;;10.97;100.00;100974.09;7400293;19;20506;-67
2021/12/31 00:05:57;;;;;;;14.48;8.25;;;;;;;10.97;100.00;100976.72;7399070;19;20018;-66
2021/12/31 00:08:26;;;;;;;16.20;8.43;;;;;;;10.97;100.00;100972.34;7400572;19;20019;-67
2021/12/31 00:10:59;;;;;;;15.43;8.95;;;;;;;10.98;100.00;100978.47;7400390;19;20027;-66
2021/12/31 00:13:27;;;;;;;14.85;8.25;;;;;;;10.99;100.00;100977.56;7399861;19;20011;-67
2021/12/31 00:15:59;;;;;;;14.43;7.65;;;;;;;11.01;100.00;100983.66;7398850;19;20018;-67
2021/12/31 00:18:27;;;;;;;14.25;8.00;;;;;;;11.02;100.00;100985.38;7400749;19;20024;-66
2021/12/31 00:20:55;;;;;;;13.68;7.53;;;;;;;11.02;100.00;100988.00;7400230;19;20018;-67
2021/12/31 00:23:25;;;;;;;14.25;8.35;;;;;;;11.05;100.00;100985.31;7400115;19;20019;-66
2021/12/31 00:25:55;;;;;;;16.40;7.45;;;;;;;11.06;100.00;100982.66;7397992;19;20032;-65
2021/12/31 00:28:23;;;;;;;12.20;7.28;;;;;;;11.07;100.00;100989.66;7400342;19;20017;-67
2021/12/31 00:30:55;;;;;;;13.15;6.63;;;;;;;11.09;100.00;100987.00;7399952;19;20015;-67
2021/12/31 00:33:26;;;;;;;8.98;6.38;;;;;;;11.09;100.00;100976.47;7399423;19;20011;-66
2021/12/31 00:35:55;;;;;;;10.70;6.57;;;;;;;11.13;100.00;100974.66;7395623;19;20021;-68
2021/12/31 00:38:23;;;;;;;9.48;6.05;;;;;;;11.14;100.00;100979.03;7400042;19;20010;-67
2021/12/31 00:40:52;;;;;;;10.55;5.40;;;;;;;11.14;100.00;100985.13;7399647;19;20019;-67
2021/12/31 00:43:20;;;;;;;8.32;5.57;;;;;;;11.11;100.00;100964.19;7400302;19;20011;-70
2021/12/31 00:45:48;;;;;;;7.43;5.22;;;;;;;11.11;100.00;100974.72;7398581;19;20010;-71
2021/12/31 00:48:17;;;;;;;7.43;5.05;;;;;;;11.18;100.00;100984.16;7399785;19;20036;-67
2021/12/31 00:50:47;;;;;;;7.70;4.63;;;;;;;11.20;100.00;100976.28;7399267;19;20027;-71
2021/12/31 00:53:16;;;;;;;21.15;5.63;;;;;;;11.20;100.00;100979.75;7398508;19;20362;-71
2021/12/31 00:55:44;;;;;;;7.40;4.82;;;;;;;11.21;100.00;100976.25;7397861;19;20026;-67
2021/12/31 00:58:12;;;;;;;7.65;5.05;;;;;;;11.24;100.00;100977.94;7398573;19;20374;-67
2021/12/31 01:00:40;;;;;;;8.27;5.30;;;;;;;11.24;100.00;100976.16;7399695;19;20019;-67
2021/12/31 01:03:08;;;;;;;7.15;4.60;;;;;;;11.25;100.00;100991.03;7398443;19;20487;-66
2021/12/31 01:05:36;;;;;;;6.07;5.07;;;;;;;11.25;100.00;100988.41;7397650;19;20035;-68
2021/12/31 01:08:07;;;;;;;7.07;5.30;;;;;;;11.25;100.00;100995.44;7398262;19;20487;-67
2021/12/31 01:10:36;;;;;;;8.57;5.85;;;;;;;11.27;100.00;100987.50;7398353;19;20476;-67
2021/12/31 01:13:09;;;;;;;10.95;5.60;;;;;;;11.25;100.00;100991.03;7398173;19;20018;-67
2021/12/31 01:15:40;;;;;;;10.60;6.73;;;;;;;11.25;100.00;100992.81;7397784;19;20019;-67
2021/12/31 01:18:26;;;;;;;15.00;7.85;;;;;;;11.24;100.00;100999.81;7398425;19;20345;-67
2021/12/31 01:20:54;;;;;;;10.73;6.97;;;;;;;11.23;100.00;100995.47;7398450;19;20036;-67
2021/12/31 01:23:25;;;;;;;12.93;7.63;;;;;;;11.22;100.00;101000.72;7397780;19;20388;-67
2021/12/31 01:25:53;;;;;;;13.82;7.53;;;;;;;11.23;100.00;100999.84;7396969;19;20014;-67
2021/12/31 01:28:22;;;;;;;12.10;7.95;;;;;;;11.23;100.00;101008.59;7396260;19;20456;-67
2021/12/31 01:30:50;;;;;;;12.32;7.43;;;;;;;11.21;100.00;100992.00;7397957;19;20036;-67
2021/12/31 01:33:18;;;;;;;13.25;7.88;;;;;;;11.22;100.00;100987.59;7395857;19;20019;-67
2021/12/31 01:35:46;;;;;;;9.30;6.75;;;;;;;11.21;100.00;100988.53;7396716;19;20015;-67
2021/12/31 01:38:15;;;;;;;11.65;7.07;;;;;;;11.20;100.00;100989.41;7397557;19;20010;-66
2021/12/31 01:40:46;;;;;;;9.70;7.07;;;;;;;11.14;100.00;100979.88;7397489;19;20018;-66
2021/12/31 01:43:15;;;;;;;10.85;6.65;;;;;;;11.16;100.00;100996.47;7397866;19;20011;-66
2021/12/31 01:45:53;;;;;;;9.90;6.50;;;;;;;11.16;100.00;101007.00;7395762;19;20022;-68
2021/12/31 01:48:28;;;;;;;11.35;6.43;;;;;;;11.15;100.00;100997.38;7397595;19;20040;-67
2021/12/31 01:50:57;;;;;;;9.20;5.43;;;;;;;11.16;100.00;101004.34;7396972;19;20483;-67
2021/12/31 01:53:26;;;;;;;13.80;6.45;;;;;;;11.18;100.00;101010.44;7396751;19;20027;-67
2021/12/31 01:55:59;;;;;;;9.30;6.28;;;;;;;11.17;100.00;101011.34;7395936;19;20394;-67
2021/12/31 01:58:28;;;;;;;6.35;4.68;;;;;;;11.18;100.00;101002.56;7397479;19;20015;-67
2021/12/31 02:01:06;;;;;;;9.50;4.80;;;;;;;11.22;100.00;101006.88;7397025;19;20014;-67
2021/12/31 02:03:36;;;;;;;5.65;4.63;;;;;;;11.23;100.00;101005.97;7397274;19;20010;-67
2021/12/31 02:06:06;;;;;;;7.38;4.50;;;;;;;11.24;100.00;101018.19;7395712;19;20020;-67
2021/12/31 02:08:35;;;;;;;5.53;4.30;;;;;;;11.29;100.00;101022.50;7396712;19;20018;-67
2021/12/31 02:11:05;;;;;;;8.00;4.30;;;;;;;11.30;100.00;101026.84;7396204;19;20479;-67
2021/12/31 02:13:34;;;;;;;5.15;4.35;;;;;;;11.32;100.00;101022.44;7397482;19;20014;-67
2021/12/31 02:16:10;;;;;;;6.63;4.18;;;;;;;11.35;100.00;101019.75;7395229;19;20022;-67
2021/12/31 02:18:42;;;;;;;7.88;4.18;;;;;;;11.37;100.00;101021.44;7396419;19;20018;-67
2021/12/31 02:21:13;;;;;;;5.63;3.85;;;;;;;11.38;100.00;101030.19;7397174;19;20036;-67
2021/12/31 02:23:46;;;;;;;5.80;3.75;;;;;;;11.41;100.00;101027.47;7395903;19;20495;-67
2021/12/31 02:26:15;;;;;;;7.68;4.32;;;;;;;11.43;100.00;101028.31;7394663;19;20030;-67
2021/12/31 02:28:43;;;;;;;6.75;4.00;;;;;;;11.46;100.00;101022.16;7396479;19;20015;-66
2021/12/31 02:31:11;;;;;;;4.50;3.65;;;;;;;11.47;100.00;101029.97;7395598;19;20385;-66
2021/12/31 02:33:40;;;;;;;4.18;3.13;;;;;;;11.48;100.00;101029.09;7395147;19;20492;-66
2021/12/31 02:36:09;;;;;;;5.63;4.15;;;;;;;11.48;100.00;101025.63;7394840;19;20027;-66
2021/12/31 02:38:40;;;;;;;5.30;3.20;;;;;;;11.49;100.00;101024.72;7395785;19;20031;-66
2021/12/31 02:41:08;;;;;;;4.95;3.80;;;;;;;11.49;100.00;101028.19;7396144;19;20014;-66
2021/12/31 02:43:36;;;;;;;7.70;3.53;;;;;;;11.51;100.00;101031.69;7395516;19;20036;-66
2021/12/31 02:46:05;;;;;;;5.00;3.80;;;;;;;11.51;100.00;101026.41;7394297;19;20025;-66
2021/12/31 02:48:33;;;;;;;4.72;3.63;;;;;;;11.50;100.00;101022.06;7395457;19;20010;-66
2021/12/31 02:51:04;;;;;;;5.65;4.15;;;;;;;11.50;100.00;101021.16;7395318;19;20040;-66
2021/12/31 02:53:34;;;;;;;4.80;3.50;;;;;;;11.48;100.00;101015.97;7395497;19;20018;-67
2021/12/31 02:56:08;;;;;;;4.03;3.40;;;;;;;11.46;100.00;101023.03;7394222;19;20041;-67
2021/12/31 02:58:37;;;;;;;5.68;3.58;;;;;;;11.46;100.00;101023.03;7398712;19;20015;-67
2021/12/31 03:01:07;;;;;;;4.47;3.55;;;;;;;11.46;100.00;101022.16;7403551;19;20007;-67
2021/12/31 03:03:36;;;;;;;4.55;3.40;;;;;;;11.44;100.00;101011.66;7402813;19;20025;-67
2021/12/31 03:06:05;;;;;;;4.75;3.63;;;;;;;11.46;100.00;101011.63;7400625;19;20022;-67
2021/12/31 03:08:38;;;;;;;4.93;3.10;;;;;;;11.46;100.00;101006.38;7402636;19;20010;-67
2021/12/31 03:11:11;;;;;;;4.18;3.28;;;;;;;11.46;100.00;101007.25;7402970;19;20025;-67
2021/12/31 03:13:40;;;;;;;6.10;3.60;;;;;;;11.47;100.00;101006.34;7402544;19;20018;-67
2021/12/31 03:16:09;;;;;;;5.13;3.38;;;;;;;11.47;100.00;101006.34;7400333;19;20035;-67
2021/12/31 03:18:38;;;;;;;4.80;2.80;;;;;;;11.45;100.00;101002.91;7402315;19;20023;-68
2021/12/31 03:21:10;;;;;;;6.15;3.53;;;;;;;11.44;100.00;101001.16;7402250;19;20018;-68
2021/12/31 03:23:39;;;;;;;4.70;2.90;;;;;;;11.41;100.00;101004.72;7402482;19;20010;-68
2021/12/31 03:26:09;;;;;;;3.88;2.92;;;;;;;11.40;100.00;101003.00;7399543;19;20500;-68
2021/12/31 03:28:38;;;;;;;4.75;2.90;;;;;;;11.40;100.00;101002.13;7399482;19;20471;-68
2021/12/31 03:31:06;;;;;;;4.15;2.78;;;;;;;11.39;100.00;101003.88;7404773;19;20031;-69
2021/12/31 03:33:34;;;;;;;6.85;2.95;;;;;;;11.37;100.00;101005.69;7404340;19;20031;-68
2021/12/31 03:36:02;;;;;;;4.72;2.97;;;;;;;11.34;100.00;101003.13;7401326;19;20022;-68
2021/12/31 03:38:30;;;;;;;5.63;3.03;;;;;;;11.33;100.00;100995.28;7401691;19;20010;-68
2021/12/31 03:40:58;;;;;;;8.15;2.95;;;;;;;11.30;100.00;101004.09;7401550;19;20014;-67
2021/12/31 03:43:29;;;;;;;4.20;2.58;;;;;;;11.28;100.00;101002.38;7401146;19;20478;-67
2021/12/31 03:45:57;;;;;;;4.20;2.55;;;;;;;11.27;100.00;100998.03;7399955;19;20381;-67
2021/12/31 03:48:26;;;;;;;3.42;2.55;;;;;;;11.24;100.00;101005.06;7401367;19;20036;-67
2021/12/31 03:50:54;;;;;;;5.55;3.03;;;;;;;11.21;100.00;100992.00;7401285;19;20011;-67
2021/12/31 03:53:22;;;;;;;2.92;2.10;;;;;;;11.18;100.00;100994.66;7401171;19;20031;-67
2021/12/31 03:55:51;;;;;;;4.50;3.22;;;;;;;11.17;100.00;101006.09;7398660;19;20018;-67
2021/12/31 03:58:19;;;;;;;3.42;2.50;;;;;;;11.18;100.00;100999.06;7401038;19;20025;-68
2021/12/31 04:00:50;;;;;;;4.63;3.08;;;;;;;11.19;100.00;101006.06;7401032;19;20028;-67
2021/12/31 04:03:18;;;;;;;3.55;2.42;;;;;;;11.19;100.00;101009.53;7401639;19;20010;-67
2021/12/31 04:05:47;;;;;;;3.72;3.13;;;;;;;11.19;100.00;101020.03;7398898;19;20387;-67
2021/12/31 04:08:15;;;;;;;4.30;3.10;;;;;;;11.21;100.00;100985.91;7400543;19;20014;-67
2021/12/31 04:10:43;;;;;;;5.50;3.22;;;;;;;11.27;100.00;100987.50;7400343;19;20027;-68
2021/12/31 04:13:11;;;;;;;4.57;2.50;;;;;;;11.30;100.00;100985.69;7400343;19;20023;-67
2021/12/31 04:15:40;;;;;;;4.65;2.92;;;;;;;11.40;100.00;100989.00;7397855;19;20390;-67
2021/12/31 04:18:11;;;;;;;6.93;3.20;;;;;;;11.46;100.00;100991.50;7400285;19;20014;-67
2021/12/31 04:20:42;;;;;;;7.45;3.28;;;;;;;11.50;100.00;100987.91;7400814;19;20030;-67
2021/12/31 04:23:14;;;;;;;8.05;3.58;;;;;;;11.50;100.00;100987.91;7400663;19;20030;-67
2021/12/31 04:25:43;;;;;;;11.85;4.60;;;;;;;11.56;100.00;100990.41;7398829;19;20022;-68
2021/12/31 04:28:12;;;;;;;9.73;4.90;;;;;;;11.57;100.00;100989.50;7397293;19;20015;-68
2021/12/31 04:30:40;;;;;;;9.05;4.30;;;;;;;11.59;100.00;100999.97;7399772;19;20014;-67
2021/12/31 04:33:11;;;;;;;3.25;2.75;;;;;;;11.60;100.00;100983.31;7399755;19;20023;-67
2021/12/31 04:35:39;;;;;;;2.63;2.42;;;;;;;11.59;100.00;100986.84;7398077;19;20018;-67
2021/12/31 04:38:07;;;;;;;4.07;2.20;;;;;;;11.59;100.00;100992.09;7399200;19;20479;-67
2021/12/31 04:40:36;;;;;;;2.72;2.28;;;;;;;11.60;100.00;100990.31;7398988;19;20492;-67
2021/12/31 04:43:04;;;;;;;3.75;2.28;;;;;;;11.58;100.00;100991.22;7399358;19;20036;-67
2021/12/31 04:45:32;;;;;;;3.38;2.60;;;;;;;11.58;100.00;100982.47;7398279;19;20015;-67
2021/12/31 04:48:01;;;;;;;4.05;2.40;;;;;;;11.56;100.00;100989.50;7399322;19;20014;-68
2021/12/31 04:50:32;;;;;;;3.05;2.40;;;;;;;11.52;100.00;100988.72;7399095;19;20010;-67
2021/12/31 04:53:02;;;;;;;4.05;2.40;;;;;;;11.49;100.00;100986.16;7399508;19;20040;-67
2021/12/31 04:55:30;;;;;;;3.83;2.55;;;;;;;11.45;100.00;100981.88;7397510;19;20096;-67
2021/12/31 04:57:59;;;;;;;3.50;2.35;;;;;;;11.44;100.00;100981.88;7398910;19;20019;-67
2021/12/31 05:00:27;;;;;;;2.95;2.05;;;;;;;11.39;100.00;100985.50;7398882;19;20036;-67
2021/12/31 05:02:55;;;;;;;3.58;2.33;;;;;;;11.33;100.00;100977.72;7398553;19;20014;-67
2021/12/31 05:05:24;;;;;;;3.38;2.20;;;;;;;11.34;100.00;100983.88;7397650;19;20026;-67
2021/12/31 05:07:54;;;;;;;2.47;2.28;;;;;;;11.32;100.00;100986.53;7398596;19;20015;-67
2021/12/31 05:10:22;;;;;;;2.20;2.00;;;;;;;11.31;100.00;100990.06;7399052;19;20021;-67
2021/12/31 05:12:55;;;;;;;4.13;2.20;;;;;;;11.30;100.00;100984.81;7398052;19;20015;-67
2021/12/31 05:15:27;;;;;;;3.55;2.15;;;;;;;11.30;99.36;100982.19;7397148;19;20023;-67
2021/12/31 05:17:55;;;;;;;1.70;1.50;;;;;;;11.28;99.35;100992.72;7398369;19;20014;-67
2021/12/31 05:20:25;;;;;;;2.13;1.85;;;;;;;11.28;100.00;100987.47;7397390;19;20018;-67
2021/12/31 05:22:57;;;;;;;2.40;1.80;;;;;;;11.28;99.72;100991.88;7397124;19;20394;-67
2021/12/31 05:25:26;;;;;;;3.10;1.85;;;;;;;11.27;100.00;100996.25;7397538;19;20014;-67
2021/12/31 05:27:54;;;;;;;2.85;1.85;;;;;;;11.28;99.10;100997.97;7396013;19;20014;-67
2021/12/31 05:30:24;;;;;;;2.35;1.30;;;;;;;11.28;98.60;101005.00;7397851;19;20056;-67
2021/12/31 05:32:53;;;;;;;2.55;1.80;;;;;;;11.30;99.52;101005.81;7397789;19;20018;-67
2021/12/31 05:35:22;;;;;;;1.60;1.50;;;;;;;11.31;99.06;101007.56;7396698;19;20517;-67
2021/12/31 05:37:50;;;;;;;1.88;1.08;;;;;;;11.32;98.20;101006.66;7397692;19;20011;-67
2021/12/31 05:40:21;;;;;;;1.83;1.30;;;;;;;11.33;97.95;101003.16;7397681;19;20036;-67
2021/12/31 05:42:49;;;;;;;2.42;1.45;;;;;;;11.34;98.02;101000.47;7397963;19;20018;-67
2021/12/31 05:45:18;;;;;;;3.00;1.58;;;;;;;11.35;97.86;101004.84;7396701;19;20019;-67
2021/12/31 05:47:47;;;;;;;1.90;1.20;;;;;;;11.35;98.09;101010.09;7397363;19;20019;-67
2021/12/31 05:50:28;;;;;;;2.65;1.38;;;;;;;11.37;97.70;101010.06;7397112;19;20017;-67
2021/12/31 05:52:56;;;;;;;1.20;1.10;;;;;;;11.37;98.19;101005.69;7397887;19;20010;-67
2021/12/31 05:55:28;;;;;;;3.67;1.30;;;;;;;11.38;97.46;101006.53;7396067;19;20030;-67
2021/12/31 05:57:56;;;;;;;1.30;1.20;;;;;;;11.38;98.28;101009.16;7397333;19;20010;-67
2021/12/31 06:00:26;;;;;;;1.23;1.00;;;;;;;11.38;97.81;101006.53;7396461;19;20384;-68
2021/12/31 06:02:54;;;;;;;3.17;1.30;;;;;;;11.39;98.69;101006.50;7396769;19;20078;-68
2021/12/31 06:05:23;;;;;;;1.77;1.15;;;;;;;11.39;98.53;101011.75;7396044;19;20019;-68
2021/12/31 06:07:51;;;;;;;1.67;1.02;;;;;;;11.40;98.10;101020.53;7396605;19;20496;-68
2021/12/31 06:10:20;;;;;;;1.65;0.90;;;;;;;11.39;98.47;101014.38;7396503;19;20010;-68
2021/12/31 06:12:52;;;;;;;2.45;0.93;;;;;;;11.39;98.25;101017.00;7396555;19;20022;-68
2021/12/31 06:15:20;;;;;;;3.38;0.98;;;;;;;11.39;97.80;101016.16;7396090;19;20023;-68
2021/12/31 06:17:49;;;;;;;4.45;1.40;;;;;;;11.40;98.63;101020.53;7396184;19;20378;-67
2021/12/31 06:20:17;;;;;;;1.83;1.05;;;;;;;11.41;98.58;101015.22;7395805;19;20377;-67
2021/12/31 06:22:45;;;;;;;2.30;1.27;;;;;;;11.40;98.50;101024.00;7396160;19;20014;-67
2021/12/31 06:25:14;;;;;;;2.15;1.08;;;;;;;11.40;98.16;101016.13;7395441;19;20035;-67
2021/12/31 06:27:42;;;;;;;1.85;1.20;;;;;;;11.42;98.45;101018.72;7394823;19;20022;-67
2021/12/31 06:30:14;;;;;;;1.25;0.95;;;;;;;11.39;98.12;101024.91;7396053;19;20019;-67
2021/12/31 06:32:42;;;;;;;2.15;1.02;;;;;;;11.43;98.07;101032.72;7393107;19;20018;-67
2021/12/31 06:35:11;;;;;;;1.10;0.98;;;;;;;11.39;97.27;101019.63;7395073;19;20015;-67
2021/12/31 06:37:39;;;;;;;1.52;1.05;;;;;;;11.41;97.70;101028.38;7395684;19;20019;-66
2021/12/31 06:40:11;;;;;;;3.65;1.50;;;;;;;11.41;97.03;101028.38;7395386;19;20036;-67
2021/12/31 06:42:39;;;;;;;2.38;0.85;;;;;;;11.43;96.16;101028.31;7395009;19;20032;-67
2021/12/31 06:45:08;;;;;;;1.17;0.90;;;;;;;11.44;98.17;101040.56;7395517;19;20103;-67
2021/12/31 06:47:39;;;;;;;2.00;1.02;;;;;;;11.43;96.32;101046.72;7395507;19;20036;-67
2021/12/31 06:50:07;;;;;;;1.63;1.10;;;;;;;11.45;97.79;101044.06;7395504;19;20019;-68
2021/12/31 06:52:39;;;;;;;2.47;1.48;;;;;;;11.45;97.07;101046.69;7395017;19;20018;-67
2021/12/31 06:55:09;;;;;;;2.05;1.15;;;;;;;11.45;97.48;101047.56;7394602;19;20021;-67
2021/12/31 06:57:38;;;;;;;2.00;1.08;;;;;;;11.40;95.90;101041.53;7394698;19;20479;-67
2021/12/31 07:00:08;;;;;;;2.17;1.30;;;;;;;11.45;95.96;101044.06;7395436;19;20011;-68
2021/12/31 07:02:39;;;;;;;1.67;1.05;;;;;;;11.46;96.74;101037.91;7394698;19;20014;-66
2021/12/31 07:05:08;;;;;;;3.35;1.30;;;;;;;11.45;96.84;101049.31;7394235;19;20377;-68
2021/12/31 07:07:37;;;;;;;2.67;1.40;;;;;;;11.46;97.02;101041.41;7394549;19;20011;-66
2021/12/31 07:10:06;;;;;;;2.58;1.40;;;;;;;11.46;97.63;101044.03;7394502;19;20099;-66
2021/12/31 07:12:35;;;;;;;2.25;1.30;;;;;;;11.45;96.85;101044.06;7395243;19;20014;-67
2021/12/31 07:15:03;;;;;;;3.00;1.42;;;;;;;11.44;97.01;101050.19;7393796;19;20018;-67
2021/12/31 07:17:31;;;;;;;2.20;1.38;;;;;;;11.42;96.59;101050.22;7394390;19;20040;-67
2021/12/31 07:20:02;;;;;;;3.85;1.17;;;;;;;11.42;96.39;101050.22;7394244;19;20014;-66
2021/12/31 07:22:30;;;;;;;1.27;1.17;;;;;;;11.40;96.76;101050.28;7394653;19;20015;-67
2021/12/31 07:24:58;;;;;;;1.20;1.10;;;;;;;11.40;96.51;101047.66;7393496;19;20022;-67
2021/12/31 07:27:28;;;;;;;1.45;1.17;;;;;;;11.38;96.04;101046.81;7393086;19;20006;-67
2021/12/31 07:29:57;;;;;;;1.65;1.10;;;;;;;11.41;96.30;101052.00;7394362;19;20023;-67
2021/12/31 07:32:26;;;;;;;2.42;1.65;;;;;;;11.41;96.51;101045.88;7394055;19;20023;-67
2021/12/31 07:34:55;;;;;;;4.40;1.98;;;;;;;11.41;96.54;101051.13;7392599;19;20371;-67
2021/12/31 07:37:25;;;;;;;5.68;2.30;;;;;;;11.40;96.75;101046.78;7393819;19;20036;-67
2021/12/31 07:40:00;;;;;;;6.18;3.00;;;;;;;11.40;96.67;101049.44;7394340;19;20022;-67
2021/12/31 07:42:28;;;;;;;5.90;3.03;;;;;;;11.40;96.46;101049.44;7395257;19;20305;-67
2021/12/31 07:44:56;;;;;;;3.22;2.45;;;;;;;11.41;96.10;101053.75;7397162;19;20018;-67
2021/12/31 07:47:24;;;;;;;5.20;2.72;;;;;;;11.40;95.84;101038.91;7401362;19;20037;-66
2021/12/31 07:49:53;;;;;;;5.00;2.50;;;;;;;11.41;95.66;101049.38;7401275;19;20018;-67
2021/12/31 07:52:21;;;;;;;5.40;2.25;;;;;;;11.42;94.79;101055.50;7401063;19;20376;-67
2021/12/31 07:54:52;;;;;;;2.78;1.77;;;;;;;11.44;94.52;101053.72;7400142;19;20499;-67
2021/12/31 07:57:26;;;;;;;3.67;2.28;;;;;;;11.49;93.08;101065.00;7398637;19;20014;-67
2021/12/31 07:59:54;;;;;;;3.85;2.20;;;;;;;11.55;94.33;101066.59;7401216;19;20019;-66
2021/12/31 08:02:22;;;;;;;2.38;1.95;;;;;;;11.56;93.19;101087.63;7400774;19;20018;-67
2021/12/31 08:04:50;;;;;;;4.07;1.75;;;;;;;11.61;95.18;101073.50;7400122;19;20036;-67
2021/12/31 08:07:19;;;;;;;2.72;1.80;;;;;;;11.62;95.06;101070.84;7400120;19;20022;-67
2021/12/31 08:09:47;;;;;;;4.22;2.03;;;;;;;11.61;94.04;101063.84;7400303;19;20010;-67
2021/12/31 08:12:18;;;;;;;2.70;1.95;;;;;;;11.58;94.93;101069.19;7400173;19;20022;-67
2021/12/31 08:14:46;;;;;;;3.28;1.60;;;;;;;11.55;94.12;101077.13;7400121;19;20014;-67
2021/12/31 08:17:20;;;;;;;3.42;1.73;;;;;;;11.52;95.42;101080.69;7398255;19;20011;-67
2021/12/31 08:19:48;;;;;;;2.30;1.42;;;;;;;11.50;96.13;101084.22;7400014;19;20018;-67
2021/12/31 08:22:17;;;;;;;8.77;2.97;;;;;;;11.47;96.09;101071.16;7400064;19;20015;-67
2021/12/31 08:24:45;;;;;;;3.55;2.00;;;;;;;11.43;96.70;101051.97;7399530;19;20014;-67
2021/12/31 08:27:13;;;;;;;1.83;1.73;;;;;;;11.40;96.77;101052.06;7398604;19;20500;-67
2021/12/31 08:29:44;;;;;;;6.40;2.47;;;;;;;11.37;97.14;101071.38;7399991;19;20114;-67
2021/12/31 08:32:12;;;;;;;3.63;2.25;;;;;;;11.35;97.32;101062.63;7400077;19;20015;-67
2021/12/31 08:34:40;;;;;;;4.40;2.70;;;;;;;11.33;96.40;101072.31;7399367;19;20030;-67
2021/12/31 08:37:08;;;;;;;4.50;2.90;;;;;;;11.32;97.74;101062.72;7397596;19;20014;-67
2021/12/31 08:39:37;;;;;;;4.38;3.15;;;;;;;11.28;96.25;101058.41;7399379;19;20018;-67
2021/12/31 08:42:06;;;;;;;5.18;3.20;;;;;;;11.31;96.87;101062.72;7399263;19;20023;-67
2021/12/31 08:44:34;;;;;;;5.38;2.83;;;;;;;11.30;95.93;101047.84;7399046;19;20036;-67
2021/12/31 08:47:06;;;;;;;4.30;2.50;;;;;;;11.29;96.07;101025.97;7399271;19;20019;-68
2021/12/31 08:49:34;;;;;;;4.03;2.50;;;;;;;11.31;96.20;101031.19;7399625;19;20036;-67
2021/12/31 08:52:03;;;;;;;5.05;2.13;;;;;;;11.28;96.24;101026.03;7398670;19;20526;-67
2021/12/31 08:54:32;;;;;;;1.90;1.40;;;;;;;11.33;96.03;101026.78;7398561;19;20018;-68
2021/12/31 08:57:01;;;;;;;2.45;1.60;;;;;;;11.35;95.90;101027.63;7395168;19;20019;-67
2021/12/31 08:59:29;;;;;;;2.38;1.60;;;;;;;11.35;95.57;101009.25;7398502;19;20086;-68
2021/12/31 09:01:57;;;;;;;5.30;1.95;;;;;;;11.40;95.49;101010.00;7398467;19;20028;-66
2021/12/31 09:04:28;;;;;;;2.45;1.30;;;;;;;11.40;93.00;101005.63;7398867;19;20048;-66
2021/12/31 09:06:56;;;;;;;1.60;1.45;;;;;;;11.46;95.01;101006.38;7399226;19;20036;-68
2021/12/31 09:09:24;;;;;;;2.35;1.30;;;;;;;11.49;95.18;101007.19;7398682;19;20031;-66
2021/12/31 09:11:54;;;;;;;2.45;1.42;;;;;;;11.53;95.00;101008.00;7398686;19;20018;-66
2021/12/31 09:14:22;;;;;;;2.42;1.40;;;;;;;11.57;94.45;101012.28;7398125;19;20371;-66
2021/12/31 09:16:52;;;;;;;2.80;1.30;;;;;;;11.56;94.10;101003.53;7396072;19;20014;-68
2021/12/31 09:19:20;;;;;;;5.28;1.65;;;;;;;11.62;92.20;101014.81;7398264;19;20370;-66
2021/12/31 09:21:51;;;;;;;2.88;1.70;;;;;;;11.68;92.73;101018.16;7398269;19;20011;-67
2021/12/31 09:24:19;;;;;;;2.70;1.20;;;;;;;11.73;93.29;101018.06;7397870;19;20371;-66
2021/12/31 09:26:47;;;;;;;2.88;1.25;;;;;;;11.77;91.70;101026.75;7395946;19;20374;-67
2021/12/31 09:29:18;;;;;;;3.35;1.20;;;;;;;11.81;91.70;101020.53;7396297;19;20011;-66
2021/12/31 09:31:47;;;;;;;1.92;1.00;;;;;;;11.86;93.17;101019.50;7398919;19;20018;-67
2021/12/31 09:34:15;;;;;;;2.83;1.00;;;;;;;11.87;90.78;101023.88;7400456;19;20014;-67
2021/12/31 09:36:43;;;;;;;3.53;1.02;;;;;;;11.93;92.85;101022.00;7395697;19;20018;-67
2021/12/31 09:39:14;;;;;;;2.80;1.25;;;;;;;11.97;90.43;101026.34;7397349;19;20018;-68
2021/12/31 09:41:44;;;;;;;2.45;1.15;;;;;;;12.00;90.75;101015.75;7397527;19;20019;-68
2021/12/31 09:44:14;;;;;;;1.50;1.00;;;;;;;12.04;92.59;101010.38;7397763;19;20044;-67
2021/12/31 09:46:43;;;;;;;2.53;0.82;;;;;;;12.08;91.64;101002.41;7395633;19;20017;-68
2021/12/31 09:49:11;;;;;;;2.45;1.27;;;;;;;12.12;91.19;101001.41;7397235;19;20018;-68
2021/12/31 09:51:43;;;;;;;4.03;1.42;;;;;;;12.14;88.30;101002.25;7397161;19;20010;-68
2021/12/31 09:54:17;;;;;;;1.75;0.98;;;;;;;12.13;91.99;101005.78;7396840;19;20386;-67
2021/12/31 09:56:45;;;;;;;3.45;1.10;;;;;;;12.20;90.58;101010.84;7394850;19;20382;-67
2021/12/31 09:59:13;;;;;;;3.72;1.10;;;;;;;12.22;90.06;101011.69;7396939;19;20040;-67
2021/12/31 10:01:49;;;;;;;1.30;0.80;;;;;;;12.25;90.96;101016.00;7396752;19;20014;-67
2021/12/31 10:04:17;;;;;;;2.47;1.42;;;;;;;12.26;90.82;101015.13;7395948;19;20379;-67
2021/12/31 10:07:06;;;;;;;3.13;1.45;;;;;;;12.27;87.36;101015.97;7394576;19;20111;-67
2021/12/31 10:09:39;;;;;;;2.28;1.45;;;;;;;12.30;90.98;101019.41;7396654;19;20376;-65
2021/12/31 10:12:09;;;;;;;2.17;1.30;;;;;;;12.32;89.57;101003.56;7396559;19;20022;-67
2021/12/31 10:14:39;;;;;;;3.28;1.17;;;;;;;12.33;91.18;101006.19;7395943;19;20011;-66
2021/12/31 10:17:08;;;;;;;2.53;1.40;;;;;;;12.36;90.88;101010.50;7395383;19;20040;-66
2021/12/31 10:19:36;;;;;;;2.70;1.10;;;;;;;12.38;88.30;101003.41;7395910;19;20033;-66
2021/12/31 10:22:07;;;;;;;3.58;1.30;;;;;;;12.42;89.94;101002.44;7396234;19;20025;-66
2021/12/31 10:24:39;;;;;;;3.63;1.40;;;;;;;12.46;90.33;101008.47;7395586;19;20498;-66
2021/12/31 10:27:20;;;;;;;2.92;2.28;;;;;;;12.48;86.35;101010.16;7395849;19;20044;-67
2021/12/31 10:29:55;;;;;;;3.97;1.67;;;;;;;12.51;88.35;101010.09;7396530;19;20029;-67
2021/12/31 10:32:25;;;;;;;2.17;1.35;;;;;;;12.55;89.81;101006.47;7396063;19;20036;-67
2021/12/31 10:34:53;;;;;;;2.72;1.23;;;;;;;12.57;89.02;100998.53;7395793;19;20026;-66
2021/12/31 10:37:26;;;;;;;4.63;1.60;;;;;;;12.58;87.07;100995.00;7394513;19;20032;-66
2021/12/31 10:40:02;;;;;;;3.75;1.40;;;;;;;12.61;85.83;100987.06;7395988;19;20011;-66
2021/12/31 10:42:31;;;;;;;5.13;1.70;;;;;;;12.64;87.91;100983.47;7395909;19;20014;-69
2021/12/31 10:45:00;;;;;;;4.43;1.80;;;;;;;12.67;87.17;100994.75;7395040;19;20014;-67
2021/12/31 10:47:33;;;;;;;3.10;1.65;;;;;;;12.69;88.27;100990.34;7395988;19;20429;-65
2021/12/31 10:50:19;;;;;;;2.05;1.10;;;;;;;12.71;84.40;100996.44;7395061;19;20374;-65
2021/12/31 10:52:59;;;;;;;2.55;1.08;;;;;;;12.74;83.65;100992.84;7396164;19;20025;-66
2021/12/31 10:55:34;;;;;;;2.05;1.10;;;;;;;12.76;83.71;100998.91;7394509;19;20019;-67
2021/12/31 10:58:05;;;;;;;2.13;1.10;;;;;;;12.80;85.99;100982.16;7394106;19;20018;-67
2021/12/31 11:00:36;;;;;;;2.33;1.20;;;;;;;12.85;87.52;100982.00;7395552;19;20027;-66
2021/12/31 11:03:05;;;;;;;3.53;1.20;;;;;;;12.87;87.24;100991.59;7394794;19;20494;-67
2021/12/31 11:05:34;;;;;;;3.28;1.30;;;;;;;12.91;86.14;100988.91;7393830;19;20498;-67
2021/12/31 11:08:04;;;;;;;2.03;0.90;;;;;;;12.92;85.86;100978.31;7394912;19;20033;-66
2021/12/31 11:10:38;;;;;;;2.75;1.15;;;;;;;12.95;82.93;100980.00;7394780;19;20007;-66
2021/12/31 11:13:12;;;;;;;2.25;1.20;;;;;;;12.96;85.42;100969.41;7395251;19;20025;-66
2021/12/31 11:15:42;;;;;;;2.53;1.00;;;;;;;12.99;86.01;100974.59;7393103;19;20034;-66
2021/12/31 11:18:11;;;;;;;1.63;1.15;;;;;;;13.01;84.21;100974.56;7392187;19;20353;-66
2021/12/31 11:20:42;;;;;;;2.15;1.20;;;;;;;13.02;82.60;100973.66;7401570;19;20014;-67
2021/12/31 11:23:10;;;;;;;3.28;1.30;;;;;;;13.03;85.54;100964.84;7402845;19;20363;-66
2021/12/31 11:25:52;;;;;;;3.25;1.23;;;;;;;13.03;80.98;100964.84;7400229;19;20038;-67
2021/12/31 11:28:26;;;;;;;3.05;1.13;;;;;;;13.02;83.61;100952.59;7399381;19;20011;-66
2021/12/31 11:30:56;;;;;;;3.20;1.75;;;;;;;13.01;83.54;100950.84;7401288;19;20018;-65
2021/12/31 11:33:30;;;;;;;8.00;4.78;;;;;;;13.03;82.59;100959.59;7400728;19;20038;-66